Time;durP1;ratioP1;P1;durP2;ratioP2;P2;SDS_P1;SDS_P2;PMS_P1;PMS_P2;Temp;Humidity;BMP_temperature;BMP_pressure;BME280_temperature;BME280_humidity;BME280_pressure;Samples;Min_cycle;Max_cycle;Signal;HPM_P1;HPM_P2
2022/03/25 00:01:10;;;;;;;;;60.50;39.75;;;;;18.71;26.66;102343.72;5085097;28;62053;-81
2022/03/25 00:03:36;;;;;;;;;51.50;39.75;;;;;18.68;26.77;102347.19;5084166;28;61965;-81
2022/03/25 00:06:01;;;;;;;;;57.75;40.75;;;;;18.67;26.92;102352.44;5065726;28;62113;-81
2022/03/25 00:08:27;;;;;;;;;54.75;40.25;;;;;18.64;26.76;102353.25;5066557;28;62095;-82
2022/03/25 00:10:52;;;;;;;;;48.00;39.50;;;;;18.63;27.08;102347.88;5066618;28;62119;-82
2022/03/25 00:13:18;;;;;;;;;54.00;40.00;;;;;18.60;26.85;102354.88;5084407;28;63257;-82
2022/03/25 00:15:44;;;;;;;;;54.00;37.50;;;;;18.58;26.83;102351.25;5082914;28;61834;-81
2022/03/25 00:18:09;;;;;;;;;49.50;37.50;;;;;18.56;26.91;102355.63;5066458;28;61836;-81
2022/03/25 00:20:35;;;;;;;;;42.00;35.50;;;;;18.57;26.90;102357.44;5065892;28;62103;-81
2022/03/25 00:23:01;;;;;;;;;48.50;36.50;;;;;18.54;26.88;102352.00;5084195;28;62034;-81
2022/03/25 00:25:28;;;;;;;;;54.00;41.50;;;;;18.53;27.11;102349.25;5066345;28;61753;-84
2022/03/25 00:27:53;;;;;;;;;51.25;38.50;;;;;18.50;26.87;102352.72;5084275;28;61705;-84
2022/03/25 00:30:19;;;;;;;;;62.50;44.75;;;;;18.49;27.18;102345.63;5066558;28;61725;-84
2022/03/25 00:32:44;;;;;;;;;50.00;38.25;;;;;18.46;27.28;102355.22;5065890;28;64666;-84
2022/03/25 00:35:10;;;;;;;;;53.50;40.75;;;;;18.42;27.08;102343.56;5083644;28;61674;-84
2022/03/25 00:37:36;;;;;;;;;60.25;43.50;;;;;18.41;27.14;102349.72;5084569;27;61708;-84
2022/03/25 00:40:01;;;;;;;;;51.00;40.50;;;;;18.39;27.10;102349.66;5084638;28;61806;-84
2022/03/25 00:42:28;;;;;;;;;53.25;37.25;;;;;18.38;27.34;102346.94;5084304;28;62239;-84
2022/03/25 00:44:54;;;;;;;;;57.00;41.50;;;;;18.35;27.61;102350.41;5066199;28;61748;-84
2022/03/25 00:47:20;;;;;;;;;57.50;40.75;;;;;18.32;27.16;102358.28;5084599;28;61985;-84
2022/03/25 00:49:45;;;;;;;;;53.25;41.00;;;;;18.29;27.09;102342.19;5083961;28;61850;-84
2022/03/25 00:52:11;;;;;;;;;44.75;34.00;;;;;18.27;27.17;102348.31;5083471;28;61835;-84
2022/03/25 00:54:36;;;;;;;;;51.25;41.75;;;;;18.23;27.23;102349.97;5084306;28;61915;-84
2022/03/25 00:57:02;;;;;;;;;55.00;45.25;;;;;18.22;27.54;102355.22;5083857;28;62062;-84
2022/03/25 00:59:29;;;;;;;;;50.25;40.75;;;;;18.18;27.42;102352.41;5084612;28;61819;-84
2022/03/25 01:01:55;;;;;;;;;62.25;45.50;;;;;18.16;27.57;102355.88;5083843;28;61756;-84
2022/03/25 01:04:21;;;;;;;;;51.00;40.75;;;;;18.12;27.64;102348.63;5082212;28;62622;-84
2022/03/25 01:06:46;;;;;;;;;51.25;40.00;;;;;18.10;27.82;102348.59;5082456;28;61829;-84
2022/03/25 01:09:12;;;;;;;;;56.25;42.75;;;;;18.09;27.77;102345.84;5065902;28;62192;-84
2022/03/25 01:11:39;;;;;;;;;59.25;39.50;;;;;18.06;27.90;102346.66;5065023;28;64642;-84
2022/03/25 01:14:05;;;;;;;;;62.00;42.50;;;;;18.06;27.97;102351.03;5083795;28;61875;-83
2022/03/25 01:16:30;;;;;;;;;58.50;46.00;;;;;18.03;27.91;102342.97;5084024;28;61910;-84
2022/03/25 01:18:56;;;;;;;;;54.50;41.25;;;;;17.99;27.96;102349.88;5082102;28;61910;-84
2022/03/25 01:21:21;;;;;;;;;56.75;43.25;;;;;17.98;28.45;102337.47;5083005;28;62347;-84
2022/03/25 01:23:48;;;;;;;;;57.75;43.50;;;;;17.94;28.07;102344.41;5083934;28;61891;-84
2022/03/25 01:26:14;;;;;;;;;53.25;41.50;;;;;17.93;27.98;102337.28;5083164;28;61935;-84
2022/03/25 01:28:40;;;;;;;;;57.25;41.75;;;;;17.89;28.09;102334.47;5083804;28;62134;-84
2022/03/25 01:31:06;;;;;;;;;55.75;41.50;;;;;17.86;27.97;102332.56;5064740;28;64530;-84
2022/03/25 01:33:33;;;;;;;;;55.75;41.75;;;;;17.83;28.02;102337.78;5065029;28;61842;-84
2022/03/25 01:35:59;;;;;;;;;63.00;44.50;;;;;17.79;28.10;102323.41;5081688;27;62126;-84
2022/03/25 01:38:27;;;;;;;;;57.75;43.25;;;;;17.78;28.22;102326.00;5083838;28;61794;-84
2022/03/25 01:40:53;;;;;;;;;61.00;43.50;;;;;17.74;28.27;102332.06;5082946;28;61950;-84
2022/03/25 01:43:19;;;;;;;;;62.00;44.50;;;;;17.71;28.23;102324.84;5083546;28;61983;-84
2022/03/25 01:45:44;;;;;;;;;59.75;42.50;;;;;17.72;28.24;102317.81;5064795;28;61948;-83
2022/03/25 01:48:12;;;;;;;;;53.50;45.00;;;;;17.70;28.28;102323.06;5083693;28;61639;-84
2022/03/25 01:50:39;;;;;;;;;58.25;39.25;;;;;17.67;28.46;102328.22;5082530;28;62059;-84
2022/03/25 01:53:14;;;;;;;;;50.50;37.50;;;;;17.66;28.24;102322.88;5083464;28;61760;-84
2022/03/25 01:55:48;;;;;;;;;56.00;44.75;;;;;17.66;28.46;102322.88;5064818;28;61837;-84
2022/03/25 01:58:14;;;;;;;;;52.75;37.25;;;;;17.61;28.45;102322.69;5081741;27;62182;-84
2022/03/25 02:00:40;;;;;;;;;65.75;46.25;;;;;17.58;28.47;102323.47;5081023;28;63464;-83
2022/03/25 02:03:07;;;;;;;;;58.50;45.75;;;;;17.58;28.59;102326.13;5064883;28;62258;-84
2022/03/25 02:05:38;;;;;;;;;52.25;40.00;;;;;17.57;29.09;102323.41;5064529;28;61721;-84
2022/03/25 02:08:03;;;;;;;;;55.75;44.75;;;;;17.55;29.31;102320.69;5083372;28;61818;-84
2022/03/25 02:10:29;;;;;;;;;61.50;43.00;;;;;17.55;29.01;102320.69;5064347;28;63727;-84
2022/03/25 02:12:54;;;;;;;;;56.75;43.25;;;;;17.52;29.27;102323.25;5064830;28;61846;-84
2022/03/25 02:15:37;;;;;;;;;59.75;45.50;;;;;17.50;28.94;102322.28;5082259;28;61864;-83
2022/03/25 02:18:05;;;;;;;;;58.00;41.50;;;;;17.50;29.41;102322.28;5081879;27;61766;-84
2022/03/25 02:20:32;;;;;;;;;56.75;37.75;;;;;17.45;29.12;102321.16;5080773;27;64739;-84
2022/03/25 02:22:58;;;;;;;;;52.50;42.00;;;;;17.37;29.14;102323.50;5086794;28;61757;-83
2022/03/25 02:25:26;;;;;;;;;57.50;40.75;;;;;17.36;29.40;102327.00;5089708;28;61740;-83
2022/03/25 02:27:52;;;;;;;;;57.25;42.50;;;;;17.34;29.55;102328.69;5089254;28;61808;-83
2022/03/25 02:30:18;;;;;;;;;58.75;43.00;;;;;17.33;29.76;102328.59;5088617;28;61933;-84
2022/03/25 02:32:44;;;;;;;;;55.00;42.75;;;;;17.26;29.73;102326.56;5071419;28;62360;-84
2022/03/25 02:35:10;;;;;;;;;50.00;41.00;;;;;17.24;30.19;102318.50;5071140;28;61850;-83
2022/03/25 02:37:36;;;;;;;;;52.00;41.25;;;;;17.23;30.14;102324.69;5089570;28;61862;-83
2022/03/25 02:40:02;;;;;;;;;64.25;43.50;;;;;17.20;30.18;102332.50;5087687;27;63927;-84
2022/03/25 02:42:28;;;;;;;;;58.75;40.50;;;;;17.17;30.61;102327.06;5089242;28;61911;-83
2022/03/25 02:44:53;;;;;;;;;60.25;45.25;;;;;17.17;30.46;102320.00;5089120;28;61922;-83
2022/03/25 02:47:19;;;;;;;;;52.25;41.25;;;;;17.15;30.49;102320.78;5089736;28;62166;-84
2022/03/25 02:49:44;;;;;;;;;55.50;42.00;;;;;17.12;30.22;102326.88;5088545;27;62049;-83
2022/03/25 02:52:10;;;;;;;;;52.75;41.50;;;;;17.11;30.38;102325.06;5087494;27;61741;-84
2022/03/25 02:54:35;;;;;;;;;55.50;44.25;;;;;17.08;30.81;102324.03;5071163;28;61870;-84
2022/03/25 02:57:01;;;;;;;;;54.25;39.00;;;;;17.06;30.69;102321.31;5088981;28;61748;-84
2022/03/25 02:59:26;;;;;;;;;55.75;43.75;;;;;17.02;31.09;102327.31;5088437;28;62633;-83
2022/03/25 03:01:52;;;;;;;;;54.25;42.25;;;;;17.02;31.30;102334.38;5070717;28;61816;-84
2022/03/25 03:04:17;;;;;;;;;54.00;40.25;;;;;17.00;31.03;102326.34;5089179;28;61840;-84
2022/03/25 03:06:46;;;;;;;;;48.25;37.50;;;;;16.94;31.09;102334.94;5089215;28;61789;-83
2022/03/25 03:09:12;;;;;;;;;55.75;43.00;;;;;16.92;31.42;102341.03;5088853;28;62502;-83
2022/03/25 03:11:38;;;;;;;;;57.25;43.00;;;;;16.87;31.33;102335.53;5088831;28;61907;-83
2022/03/25 03:14:04;;;;;;;;;54.50;44.00;;;;;16.82;31.74;102330.88;5088703;28;61746;-83
2022/03/25 03:16:30;;;;;;;;;60.00;42.75;;;;;16.71;31.84;102343.59;5070985;28;61726;-84
2022/03/25 03:18:56;;;;;;;;;60.50;41.00;;;;;16.62;31.92;102338.81;5070230;28;63935;-84
2022/03/25 03:21:24;;;;;;;;;55.00;45.25;;;;;16.60;31.94;102340.47;5070298;28;61856;-84
2022/03/25 03:23:51;;;;;;;;;52.25;37.50;;;;;16.62;31.87;102333.50;5089116;28;61992;-83
2022/03/25 03:26:21;;;;;;;;;44.75;35.00;;;;;16.64;31.98;102330.94;5070443;27;62335;-83
2022/03/25 03:28:46;;;;;;;;;64.25;42.25;;;;;16.62;32.00;102329.94;5069553;28;63174;-83
2022/03/25 03:31:12;;;;;;;;;54.00;43.50;;;;;16.63;32.15;102326.47;5089118;28;61791;-83
2022/03/25 03:33:38;;;;;;;;;60.75;44.25;;;;;16.59;32.41;102330.72;5085472;28;61807;-84
2022/03/25 03:36:04;;;;;;;;;62.25;46.00;;;;;16.56;32.41;102334.16;5085174;28;61784;-84
2022/03/25 03:38:29;;;;;;;;;55.25;43.50;;;;;16.55;32.41;102320.81;5084853;28;61797;-83
2022/03/25 03:40:55;;;;;;;;;60.75;48.00;;;;;16.53;32.57;102322.50;5085310;28;61752;-84
2022/03/25 03:43:20;;;;;;;;;61.75;44.75;;;;;16.52;32.65;102326.91;5085327;28;62172;-83
2022/03/25 03:45:46;;;;;;;;;59.50;42.75;;;;;16.51;32.67;102325.06;5066778;28;62172;-83
2022/03/25 03:48:11;;;;;;;;;55.00;41.25;;;;;16.49;32.94;102325.84;5084950;28;62929;-84
2022/03/25 03:50:38;;;;;;;;;60.00;42.00;;;;;16.48;32.81;102324.03;5084719;28;61760;-83
2022/03/25 03:53:04;;;;;;;;;58.75;42.50;;;;;16.45;32.98;102327.47;5066944;28;61900;-84
2022/03/25 03:55:30;;;;;;;;;59.75;42.00;;;;;16.47;33.04;102330.16;5067011;28;61797;-83
2022/03/25 03:57:55;;;;;;;;;52.25;40.25;;;;;16.41;33.49;102320.22;5083569;28;61937;-81
2022/03/25 04:00:21;;;;;;;;;55.25;43.00;;;;;16.39;33.56;102329.84;5085004;28;62074;-81
2022/03/25 04:02:47;;;;;;;;;55.00;43.00;;;;;16.34;33.52;102326.94;5085186;28;62056;-81
2022/03/25 04:05:13;;;;;;;;;53.00;36.50;;;;;16.34;33.46;102331.34;5083728;27;61905;-81
2022/03/25 04:07:48;;;;;;;;;51.75;40.25;;;;;16.31;33.57;102329.47;5082580;27;63941;-81
2022/03/25 04:10:15;;;;;;;;;58.25;42.00;;;;;16.29;33.94;102331.16;5084668;28;61911;-81
2022/03/25 04:12:42;;;;;;;;;51.50;40.00;;;;;16.29;33.93;102324.94;5084411;27;61995;-81
2022/03/25 04:15:09;;;;;;;;;60.50;46.00;;;;;16.29;34.20;102331.16;5084774;28;62087;-81
2022/03/25 04:17:36;;;;;;;;;50.25;39.50;;;;;16.27;34.22;102329.28;5083957;28;61972;-81
2022/03/25 04:20:02;;;;;;;;;56.50;41.00;;;;;16.24;34.22;102332.69;5084787;28;61764;-80
2022/03/25 04:22:27;;;;;;;;;58.75;45.50;;;;;16.22;34.32;102330.81;5084266;28;61832;-81
2022/03/25 04:24:55;;;;;;;;;52.50;38.25;;;;;16.22;34.21;102336.13;5084712;28;61758;-81
2022/03/25 04:27:21;;;;;;;;;51.25;40.75;;;;;16.19;34.18;102336.84;5064774;28;64066;-84
2022/03/25 04:29:46;;;;;;;;;54.50;41.00;;;;;16.17;34.26;102337.63;5066285;28;61897;-83
2022/03/25 04:32:12;;;;;;;;;58.50;43.00;;;;;16.14;34.39;102347.25;5084809;28;62015;-83
2022/03/25 04:34:37;;;;;;;;;52.25;42.00;;;;;16.08;34.43;102340.75;5084740;28;62111;-83
2022/03/25 04:37:03;;;;;;;;;61.50;43.00;;;;;16.02;34.75;102348.41;5083351;28;61871;-83
2022/03/25 04:39:28;;;;;;;;;58.25;43.75;;;;;15.91;34.90;102347.91;5066322;28;61935;-83
2022/03/25 04:41:54;;;;;;;;;57.75;43.00;;;;;15.91;34.30;102342.59;5065833;28;62184;-83
2022/03/25 04:44:19;;;;;;;;;59.00;44.50;;;;;15.87;34.46;102344.19;5084809;27;61960;-84
2022/03/25 04:46:44;;;;;;;;;54.50;41.50;;;;;15.83;34.60;102344.91;5083032;28;61800;-84
2022/03/25 04:49:10;;;;;;;;;59.25;44.25;;;;;15.81;34.71;102348.28;5065918;28;61943;-84
2022/03/25 04:51:35;;;;;;;;;60.75;42.00;;;;;15.76;34.51;102348.06;5065786;28;62699;-83
2022/03/25 04:54:01;;;;;;;;;57.00;40.00;;;;;15.65;34.95;102355.47;5066164;28;61868;-83
2022/03/25 04:56:27;;;;;;;;;48.75;39.25;;;;;15.63;34.71;102359.75;5064548;28;63913;-83
2022/03/25 04:58:52;;;;;;;;;52.75;41.00;;;;;15.65;34.61;102362.50;5084085;28;61792;-84
2022/03/25 05:01:17;;;;;;;;;60.75;46.75;;;;;15.66;34.77;102365.22;5084136;28;61825;-83
2022/03/25 05:03:43;;;;;;;;;65.25;44.00;;;;;15.66;34.78;102359.00;5066108;28;62161;-83
2022/03/25 05:06:08;;;;;;;;;59.50;44.50;;;;;15.66;34.90;102359.94;5064971;28;63902;-84
2022/03/25 05:08:34;;;;;;;;;57.50;43.75;;;;;15.67;35.02;102358.19;5084116;28;61769;-83
2022/03/25 05:10:59;;;;;;;;;53.00;43.00;;;;;15.63;35.32;102357.13;5065279;28;61883;-83
2022/03/25 05:13:25;;;;;;;;;62.50;45.50;;;;;15.64;35.17;102365.97;5065860;28;61730;-83
2022/03/25 05:15:50;;;;;;;;;55.00;44.00;;;;;15.62;35.21;102363.25;5064595;28;63690;-84
2022/03/25 05:18:16;;;;;;;;;64.50;42.00;;;;;15.61;35.10;102372.03;5084128;28;62166;-83
2022/03/25 05:20:42;;;;;;;;;62.50;44.00;;;;;15.61;35.41;102365.81;5083421;28;61845;-83
2022/03/25 05:23:08;;;;;;;;;66.25;45.25;;;;;15.53;35.55;102369.00;5065805;28;61794;-83
2022/03/25 05:25:34;;;;;;;;;60.25;45.00;;;;;15.52;35.10;102361.00;5064392;28;63775;-83
2022/03/25 05:27:59;;;;;;;;;57.75;46.75;;;;;15.50;35.42;102366.19;5064747;28;61806;-83
2022/03/25 05:30:27;;;;;;;;;67.00;50.25;;;;;15.48;35.24;102366.97;5083637;28;61804;-83
2022/03/25 05:32:54;;;;;;;;;61.25;45.75;;;;;15.44;35.38;102365.88;5083961;28;62199;-83
2022/03/25 05:35:21;;;;;;;;;58.75;43.75;;;;;15.44;35.27;102368.53;5082788;28;62828;-82
2022/03/25 05:37:47;;;;;;;;;56.25;43.25;;;;;15.43;35.49;102365.84;5064598;28;61966;-83
2022/03/25 05:40:13;;;;;;;;;48.25;39.00;;;;;15.42;35.49;102366.66;5065374;28;61884;-83
2022/03/25 05:42:39;;;;;;;;;55.50;42.00;;;;;15.41;35.34;102370.13;5065485;28;61834;-83
2022/03/25 05:45:06;;;;;;;;;61.25;46.75;;;;;15.39;35.63;102374.44;5064470;28;63703;-83
2022/03/25 05:47:33;;;;;;;;;56.00;38.75;;;;;15.38;35.54;102372.63;5081955;28;61843;-83
2022/03/25 05:49:58;;;;;;;;;58.50;44.50;;;;;15.36;35.73;102366.34;5081962;28;62044;-83
2022/03/25 05:52:24;;;;;;;;;55.50;44.25;;;;;15.34;35.92;102369.81;5064312;28;61893;-83
2022/03/25 05:54:50;;;;;;;;;60.00;42.00;;;;;15.33;35.64;102375.94;5064453;28;63996;-83
2022/03/25 05:57:16;;;;;;;;;62.50;44.75;;;;;15.32;35.55;102375.88;5063516;28;61876;-82
2022/03/25 05:59:41;;;;;;;;;57.50;41.50;;;;;15.32;35.44;102382.06;5065075;28;62046;-83
2022/03/25 06:02:08;;;;;;;;;65.50;45.75;;;;;15.33;35.98;102377.69;5065557;28;61989;-83
2022/03/25 06:04:34;;;;;;;;;62.50;46.25;;;;;15.33;36.07;102386.50;5082493;28;61865;-83
2022/03/25 06:06:59;;;;;;;;;65.25;46.00;;;;;15.33;35.78;102389.16;5082347;28;61854;-82
2022/03/25 06:09:24;;;;;;;;;63.75;45.75;;;;;15.33;35.76;102389.16;5065044;28;61946;-88
2022/03/25 06:11:51;;;;;;;;;71.50;49.50;;;;;15.36;36.08;102392.78;5083173;28;61804;-89
2022/03/25 06:14:17;;;;;;;;;56.25;40.25;;;;;15.37;36.40;102394.63;5064218;28;63781;-87
2022/03/25 06:16:42;;;;;;;;;63.00;46.25;;;;;15.35;36.20;102389.25;5064454;28;61929;-90
2022/03/25 06:19:08;;;;;;;;;61.75;43.75;;;;;15.37;36.11;102391.97;5064954;28;62121;-86
2022/03/25 06:21:34;;;;;;;;;60.25;45.75;;;;;15.39;36.23;102396.50;5083400;28;62122;-89
2022/03/25 06:23:59;;;;;;;;;68.50;49.00;;;;;15.42;35.99;102404.59;5064354;28;63919;-91
2022/03/25 06:26:25;;;;;;;;;70.00;51.00;;;;;15.42;36.05;102403.69;5082346;28;62115;-90
2022/03/25 06:28:51;;;;;;;;;52.25;44.00;;;;;15.39;36.09;102406.19;5082962;28;61748;-86
2022/03/25 06:31:16;;;;;;;;;61.75;46.00;;;;;15.41;36.78;102408.09;5064360;28;61836;-87
2022/03/25 06:33:42;;;;;;;;;66.25;48.25;;;;;15.42;36.57;102401.03;5081760;28;62186;-87
2022/03/25 06:36:09;;;;;;;;;66.25;44.00;;;;;15.48;36.58;102409.31;5081129;28;61886;-87
2022/03/25 06:38:35;;;;;;;;;69.50;49.75;;;;;15.64;35.89;102408.31;5063697;28;61785;-87
2022/03/25 06:41:01;;;;;;;;;65.25;47.50;;;;;15.57;36.23;102409.75;5063735;28;61766;-87
2022/03/25 06:43:27;;;;;;;;;58.75;45.50;;;;;15.59;36.21;102408.09;5062684;28;63698;-87
2022/03/25 06:45:53;;;;;;;;;57.50;45.50;;;;;15.63;36.48;102419.75;5063614;28;61808;-86
2022/03/25 06:48:19;;;;;;;;;57.00;45.50;;;;;15.61;36.38;102413.47;5063266;28;61942;-84
2022/03/25 06:50:44;;;;;;;;;61.25;46.25;;;;;15.60;36.43;102423.16;5082632;28;61993;-87
2022/03/25 06:53:10;;;;;;;;;64.25;45.25;;;;;15.68;36.44;102418.22;5079777;28;64773;-86
2022/03/25 06:55:36;;;;;;;;;67.75;48.25;;;;;15.92;36.21;102419.50;5079135;28;61959;-87
2022/03/25 06:58:02;;;;;;;;;61.50;44.25;;;;;16.20;35.72;102425.22;5063121;28;61909;-86
2022/03/25 07:00:28;;;;;;;;;65.25;47.25;;;;;16.60;35.15;102430.63;5063354;28;62084;-85
2022/03/25 07:02:54;;;;;;;;;68.75;51.50;;;;;16.86;34.86;102423.91;5062599;28;63965;-85
2022/03/25 07:05:21;;;;;;;;;69.75;49.25;;;;;17.10;34.49;102425.84;5062932;28;61855;-86
2022/03/25 07:07:47;;;;;;;;;68.50;50.50;;;;;17.38;34.29;102425.28;5081228;28;61951;-82
2022/03/25 07:10:15;;;;;;;;;64.25;51.00;;;;;17.62;33.63;102422.75;5085672;28;61941;-82
2022/03/25 07:12:43;;;;;;;;;64.50;48.00;;;;;17.72;33.40;102419.66;5084678;28;61885;-84
2022/03/25 07:15:10;;;;;;;;;72.50;51.00;;;;;17.74;33.38;102420.63;5084379;27;62274;-78
2022/03/25 07:17:37;;;;;;;;;75.00;51.50;;;;;17.81;33.27;102423.53;5084143;27;61927;-84
2022/03/25 07:20:04;;;;;;;;;68.00;52.25;;;;;17.93;32.97;102422.31;5085505;28;62063;-84
2022/03/25 07:22:31;;;;;;;;;63.50;49.25;;;;;18.05;33.32;102428.97;5077605;28;63953;-83
2022/03/25 07:24:57;;;;;;;;;71.00;52.00;;;;;18.28;32.90;102430.78;5077439;28;61839;-83
2022/03/25 07:27:22;;;;;;;;;73.50;49.50;;;;;18.74;32.15;102428.97;5084785;27;61784;-84
2022/03/25 07:29:48;;;;;;;;;68.25;46.75;;;;;19.46;31.33;102431.56;5085381;28;61744;-83
2022/03/25 07:32:13;;;;;;;;;63.00;49.50;;;;;19.57;30.52;102434.59;5063365;28;64909;-83
2022/03/25 07:34:39;;;;;;;;;60.50;40.75;;;;;19.87;30.80;102428.53;5064933;28;61819;-83
2022/03/25 07:37:05;;;;;;;;;61.00;48.25;;;;;20.59;29.46;102426.38;5064242;28;61998;-83
2022/03/25 07:39:31;;;;;;;;;67.25;48.50;;;;;20.75;29.04;102434.81;5064278;28;62043;-83
2022/03/25 07:41:57;;;;;;;;;58.25;45.25;;;;;20.76;28.80;102436.59;5064739;28;63756;-83
2022/03/25 07:44:22;;;;;;;;;67.00;47.25;;;;;20.62;29.42;102436.22;5066424;28;62094;-83
2022/03/25 07:46:48;;;;;;;;;63.00;48.25;;;;;20.42;29.31;102444.50;5084627;28;61786;-83
2022/03/25 07:49:13;;;;;;;;;58.75;45.50;;;;;20.25;29.13;102439.50;5080088;27;62252;-83
2022/03/25 07:51:39;;;;;;;;;66.25;48.50;;;;;20.09;29.12;102440.78;5083946;28;61950;-84
2022/03/25 07:54:05;;;;;;;;;54.50;44.00;;;;;19.96;29.01;102443.03;5083501;27;61933;-83
2022/03/25 07:56:31;;;;;;;;;65.50;49.75;;;;;19.87;28.75;102455.19;5062702;28;61859;-83
2022/03/25 07:58:59;;;;;;;;;58.00;43.25;;;;;19.78;28.44;102443.34;5064485;28;62182;-83
2022/03/25 08:01:25;;;;;;;;;61.00;45.75;;;;;19.71;29.15;102446.69;5063754;28;62003;-84
2022/03/25 08:03:50;;;;;;;;;62.75;45.00;;;;;19.66;29.11;102456.22;5064194;28;61729;-84
2022/03/25 08:06:16;;;;;;;;;72.25;50.00;;;;;19.62;28.55;102448.97;5045983;28;62211;-83
2022/03/25 08:08:41;;;;;;;;;65.25;49.50;;;;;19.57;28.71;102453.25;5045653;28;61898;-84
2022/03/25 08:11:08;;;;;;;;;74.75;51.50;;;;;19.51;29.26;102453.94;5045637;28;61859;-84
2022/03/25 08:13:34;;;;;;;;;62.00;46.75;;;;;19.39;28.96;102457.09;5064438;28;61813;-84
2022/03/25 08:16:00;;;;;;;;;54.50;41.50;;;;;19.46;28.98;102459.97;5046352;28;62121;-84
2022/03/25 08:18:25;;;;;;;;;59.25;46.75;;;;;19.47;28.83;102451.13;5064177;28;62111;-84
2022/03/25 08:20:52;;;;;;;;;67.75;49.00;;;;;19.48;29.11;102453.84;5044553;28;63893;-84
2022/03/25 08:28:50;;;;;;;;;72.00;51.50;;;;;19.43;29.03;102447.47;5084836;28;61784;-83
2022/03/25 08:31:16;;;;;;;;;66.25;49.00;;;;;19.45;28.96;102459.03;5083604;28;61830;-84
2022/03/25 08:33:42;;;;;;;;;61.50;45.25;;;;;19.46;29.27;102454.66;5083996;28;61944;-84
2022/03/25 08:36:10;;;;;;;;;65.50;48.25;;;;;19.48;29.25;102456.50;5084442;28;62142;-83
2022/03/25 08:38:36;;;;;;;;;64.25;51.25;;;;;19.51;29.14;102450.38;5082936;28;61820;-83
2022/03/25 08:41:02;;;;;;;;;58.75;41.25;;;;;19.55;28.89;102457.63;5083244;27;61926;-83
2022/03/25 08:43:28;;;;;;;;;68.75;49.50;;;;;19.56;29.13;102455.03;5062491;28;61944;-83
2022/03/25 08:45:54;;;;;;;;;61.75;46.75;;;;;19.57;28.70;102448.81;5064125;28;61729;-83
2022/03/25 08:48:20;;;;;;;;;59.75;46.50;;;;;19.64;28.89;102459.69;5063481;28;61753;-84
2022/03/25 08:50:45;;;;;;;;;66.25;48.50;;;;;19.68;28.75;102457.19;5062863;28;62719;-83
2022/03/25 08:53:12;;;;;;;;;73.50;53.00;;;;;19.71;28.84;102453.75;5045508;28;61730;-83
2022/03/25 08:55:37;;;;;;;;;62.00;47.00;;;;;19.73;28.89;102447.63;5045667;28;61692;-83
2022/03/25 08:58:03;;;;;;;;;69.00;50.75;;;;;19.78;28.44;102463.78;5044730;28;62412;-84
2022/03/25 09:00:29;;;;;;;;;71.00;48.25;;;;;19.81;28.35;102453.19;5061862;28;63223;-84
2022/03/25 09:02:54;;;;;;;;;65.50;50.50;;;;;19.86;28.52;102458.69;5044719;28;61827;-84
2022/03/25 09:05:20;;;;;;;;;69.00;48.25;;;;;19.88;28.33;102452.56;5063845;28;61744;-84
2022/03/25 09:07:45;;;;;;;;;70.25;49.75;;;;;19.92;28.22;102459.78;5063191;28;61889;-84
2022/03/25 09:10:16;;;;;;;;;62.25;48.75;;;;;20.00;28.89;102463.59;5044584;28;63634;-84
2022/03/25 09:12:44;;;;;;;;;55.50;42.00;;;;;19.99;27.60;102458.25;5063669;28;61877;-84
2022/03/25 09:15:12;;;;;;;;;66.00;50.00;;;;;20.06;28.20;102462.00;5062861;28;61781;-80
2022/03/25 09:17:39;;;;;;;;;64.00;48.25;;;;;20.12;27.98;102454.22;5063481;28;61704;-84
2022/03/25 09:20:05;;;;;;;;;70.25;51.25;;;;;20.17;27.83;102457.91;5044637;28;64014;-84
2022/03/25 09:22:31;;;;;;;;;63.25;46.50;;;;;20.15;27.55;102456.97;5064870;28;61875;-84
2022/03/25 09:24:58;;;;;;;;;69.50;49.75;;;;;20.22;27.28;102453.63;5064625;28;61970;-84
2022/03/25 09:27:24;;;;;;;;;65.50;49.50;;;;;20.25;27.50;102451.06;5083676;28;62218;-84
2022/03/25 09:29:50;;;;;;;;;52.50;39.75;;;;;20.34;27.59;102456.69;5082402;28;63014;-83
2022/03/25 09:32:15;;;;;;;;;74.00;52.75;;;;;20.41;27.18;102455.09;5082442;28;61865;-81
2022/03/25 09:37:25;;;;;;;;;62.00;44.75;;;;;20.54;27.18;102456.38;5081900;28;61901;-80
2022/03/25 09:39:51;;;;;;;;;58.75;45.00;;;;;20.57;27.46;102452.09;5063935;28;63746;-82
2022/03/25 09:42:18;;;;;;;;;65.00;50.00;;;;;20.63;27.26;102452.28;5064555;28;61999;-83
2022/03/25 09:44:43;;;;;;;;;64.25;48.25;;;;;20.72;27.30;102458.75;5083166;28;61787;-83
2022/03/25 09:47:14;;;;;;;;;62.50;49.00;;;;;20.72;26.84;102448.06;5064741;28;61836;-83
2022/03/25 09:49:41;;;;;;;;;71.50;51.00;;;;;20.76;26.70;102456.22;5082785;28;62765;-83
2022/03/25 09:52:07;;;;;;;;;79.75;56.00;;;;;20.86;26.70;102460.03;5063565;28;61918;-84
2022/03/25 09:54:34;;;;;;;;;73.75;55.75;;;;;20.95;26.48;102454.97;5082609;28;61868;-84
2022/03/25 09:57:00;;;;;;;;;72.50;53.00;;;;;21.01;26.08;102457.81;5064588;28;61693;-79
2022/03/25 09:59:26;;;;;;;;;68.75;54.75;;;;;21.07;26.32;102449.06;5081802;28;62640;-79
2022/03/25 10:01:51;;;;;;;;;64.00;47.00;;;;;21.18;26.64;102457.38;5082047;28;61824;-83
2022/03/25 10:04:36;;;;;;;;;72.75;52.50;;;;;21.26;26.30;102445.13;5064394;28;62154;-83
2022/03/25 10:07:14;;;;;;;;;77.50;52.50;;;;;21.35;26.39;102445.38;5082479;28;61903;-83
2022/03/25 10:09:39;;;;;;;;;72.25;49.75;;;;;21.42;26.13;102438.47;5082329;28;63097;-84
2022/03/25 10:12:26;;;;;;;;;72.50;52.50;;;;;21.51;25.84;102435.13;5064379;28;61875;-83
2022/03/25 10:15:37;;;;;;;;;63.50;50.50;;;;;21.60;26.41;102424.69;5081809;28;62185;-84
2022/03/25 10:18:07;;;;;;;;;75.50;53.25;;;;;21.69;25.93;102430.25;5079564;28;61829;-83
2022/03/25 10:20:35;;;;;;;;;69.25;50.75;;;;;21.77;25.60;102431.34;5082486;28;61886;-84
2022/03/25 10:23:15;;;;;;;;;59.25;44.75;;;;;21.83;25.47;102433.25;5082165;27;61869;-83
2022/03/25 10:25:44;;;;;;;;;60.00;46.50;;;;;21.90;24.81;102427.22;5081443;28;61992;-83
2022/03/25 10:28:28;;;;;;;;;72.50;53.75;;;;;21.95;24.68;102427.31;5063173;28;62248;-83
2022/03/25 10:31:05;;;;;;;;;68.50;52.50;;;;;22.05;24.41;102432.91;5080380;28;65311;-84
2022/03/25 10:34:00;;;;;;;;;70.75;51.25;;;;;22.12;24.33;102422.38;5082439;28;61796;-83
2022/03/25 10:36:26;;;;;;;;;73.50;51.50;;;;;22.21;25.23;102423.47;5082131;28;62014;-83
2022/03/25 10:38:55;;;;;;;;;75.50;56.00;;;;;22.38;25.49;102431.00;5069407;28;61936;-84
2022/03/25 10:41:22;;;;;;;;;67.25;51.25;;;;;22.52;25.41;102432.22;5081012;28;63793;-84
2022/03/25 10:43:52;;;;;;;;;67.00;50.75;;;;;22.61;24.98;102428.81;5064545;28;61892;-83
2022/03/25 10:46:52;;;;;;;;;71.75;50.75;;;;;22.75;23.98;102415.72;5067792;28;61838;-84
2022/03/25 10:49:19;;;;;;;;;66.75;51.75;;;;;22.84;24.66;102423.97;5073289;28;62225;-83
2022/03/25 10:51:52;;;;;;;;;78.25;53.00;;;;;22.99;25.05;102420.69;5084619;28;62002;-83
2022/03/25 10:54:23;;;;;;;;;76.00;56.75;;;;;23.12;24.34;102422.75;5067515;28;61847;-84
2022/03/25 10:56:51;;;;;;;;;78.75;54.25;;;;;23.18;24.01;102420.19;5067002;28;61944;-83
2022/03/25 10:59:25;;;;;;;;;66.25;46.25;;;;;23.30;24.28;102416.81;5067616;28;62094;-84
2022/03/25 11:01:53;;;;;;;;;59.50;45.75;;;;;23.39;24.04;102416.06;5084997;28;61864;-83
2022/03/25 11:04:19;;;;;;;;;67.25;51.00;;;;;23.51;23.82;102421.66;5066731;28;61945;-83
2022/03/25 11:06:46;;;;;;;;;71.75;46.50;;;;;23.65;23.36;102421.88;5066823;28;62045;-84
2022/03/25 11:09:13;;;;;;;;;65.25;48.75;;;;;23.70;22.85;102409.44;5085844;28;62192;-83
2022/03/25 11:11:41;;;;;;;;;62.75;45.75;;;;;23.83;22.47;102413.28;5083333;27;63799;-83
2022/03/25 11:14:08;;;;;;;;;63.75;47.75;;;;;24.04;23.03;102407.34;5085473;28;61935;-83
2022/03/25 11:16:39;;;;;;;;;57.00;45.50;;;;;24.16;22.05;102410.16;5085420;28;61737;-83